createdAt,value
2022-10-19T00:01:14.433Z,100.00
2022-10-19T00:03:44.210Z,100.00
2022-10-19T00:06:25.974Z,100.00
2022-10-19T00:08:56.738Z,100.00
2022-10-19T00:11:25.112Z,100.00
2022-10-19T00:13:54.740Z,100.00
2022-10-19T00:16:23.634Z,100.00
2022-10-19T00:18:51.269Z,100.00
2022-10-19T00:21:19.696Z,100.00
2022-10-19T00:23:48.349Z,100.00
2022-10-19T00:26:16.006Z,100.00
2022-10-19T00:28:44.232Z,100.00
2022-10-19T00:31:15.871Z,100.00
2022-10-19T00:33:46.716Z,100.00
2022-10-19T00:36:21.516Z,100.00
2022-10-19T00:38:49.438Z,100.00
2022-10-19T00:41:18.983Z,100.00
2022-10-19T00:43:54.748Z,100.00
2022-10-19T00:46:23.298Z,100.00
2022-10-19T00:48:53.867Z,100.00
2022-10-19T00:51:23.004Z,100.00
2022-10-19T00:53:51.028Z,100.00
2022-10-19T00:56:18.921Z,100.00
2022-10-19T00:58:47.146Z,100.00
2022-10-19T01:01:19.379Z,100.00
2022-10-19T01:03:46.980Z,100.00
2022-10-19T01:06:17.767Z,100.00
2022-10-19T01:08:46.319Z,100.00
2022-10-19T01:11:45.723Z,100.00
2022-10-19T01:14:45.236Z,100.00
2022-10-19T01:17:42.520Z,100.00
2022-10-19T01:20:28.134Z,100.00
2022-10-19T01:23:25.001Z,100.00
2022-10-19T01:26:02.579Z,100.00
2022-10-19T01:28:57.827Z,100.00
2022-10-19T01:31:45.518Z,100.00
2022-10-19T01:34:15.539Z,100.00
2022-10-19T01:36:46.209Z,100.00
2022-10-19T01:39:23.063Z,100.00
2022-10-19T01:41:59.115Z,100.00
2022-10-19T01:44:41.042Z,100.00
2022-10-19T01:47:17.007Z,100.00
2022-10-19T01:49:51.161Z,100.00
2022-10-19T01:52:21.255Z,100.00
2022-10-19T01:54:52.854Z,100.00
2022-10-19T01:57:25.501Z,100.00
2022-10-19T01:59:55.673Z,100.00
2022-10-19T02:02:26.016Z,100.00
2022-10-19T02:04:57.312Z,100.00
2022-10-19T02:07:25.352Z,100.00
2022-10-19T02:09:52.888Z,100.00
2022-10-19T02:12:21.603Z,100.00
2022-10-19T02:14:53.460Z,100.00
2022-10-19T02:17:27.164Z,100.00
2022-10-19T02:19:54.697Z,100.00
2022-10-19T02:22:22.259Z,100.00
2022-10-19T02:24:49.965Z,100.00
2022-10-19T02:27:17.684Z,100.00
2022-10-19T02:29:45.690Z,100.00
2022-10-19T02:32:13.353Z,100.00
2022-10-19T02:34:41.658Z,100.00
2022-10-19T02:37:09.431Z,100.00
2022-10-19T02:39:39.012Z,100.00
2022-10-19T02:42:18.108Z,100.00
2022-10-19T02:44:58.525Z,100.00
2022-10-19T02:47:33.283Z,100.00
2022-10-19T02:50:04.874Z,100.00
2022-10-19T02:52:32.516Z,100.00
2022-10-19T02:55:00.023Z,100.00
2022-10-19T02:57:27.720Z,100.00
2022-10-19T02:59:55.227Z,100.00
2022-10-19T03:02:22.730Z,100.00
2022-10-19T03:04:50.492Z,100.00
2022-10-19T03:07:20.221Z,100.00
2022-10-19T03:09:48.553Z,100.00
2022-10-19T03:12:16.441Z,100.00
2022-10-19T03:14:44.323Z,100.00
2022-10-19T03:17:11.889Z,100.00
2022-10-19T03:19:39.467Z,100.00
2022-10-19T03:22:07.362Z,100.00
2022-10-19T03:24:34.906Z,100.00
2022-10-19T03:27:02.483Z,100.00
2022-10-19T03:29:30.064Z,100.00
2022-10-19T03:31:57.689Z,100.00
2022-10-19T03:34:25.212Z,100.00
2022-10-19T03:36:52.816Z,100.00
2022-10-19T03:39:20.312Z,100.00
2022-10-19T03:41:47.879Z,100.00
2022-10-19T03:44:15.390Z,100.00
2022-10-19T03:46:42.947Z,100.00
2022-10-19T03:49:11.432Z,100.00
2022-10-19T03:51:38.978Z,100.00
2022-10-19T03:54:08.561Z,100.00
2022-10-19T03:56:36.423Z,100.00
2022-10-19T03:59:07.052Z,100.00
2022-10-19T04:01:37.785Z,100.00
2022-10-19T04:04:13.054Z,100.00
2022-10-19T04:06:43.312Z,100.00
2022-10-19T04:09:13.367Z,100.00
2022-10-19T04:11:42.037Z,100.00
2022-10-19T04:14:19.133Z,100.00
2022-10-19T04:16:54.797Z,100.00
2022-10-19T04:19:22.325Z,100.00
2022-10-19T04:21:49.895Z,100.00
2022-10-19T04:24:18.813Z,100.00
2022-10-19T04:26:51.580Z,100.00
2022-10-19T04:29:22.825Z,100.00
2022-10-19T04:31:53.217Z,100.00
2022-10-19T04:34:20.812Z,100.00
2022-10-19T04:36:48.432Z,100.00
2022-10-19T04:39:16.098Z,100.00
2022-10-19T04:41:43.622Z,100.00
2022-10-19T04:44:11.167Z,100.00
2022-10-19T04:46:38.828Z,100.00
2022-10-19T04:49:06.996Z,100.00
2022-10-19T04:51:34.894Z,100.00
2022-10-19T04:54:03.961Z,100.00
2022-10-19T04:56:32.314Z,100.00
2022-10-19T04:59:01.058Z,100.00
2022-10-19T05:01:30.653Z,100.00
2022-10-19T05:04:01.005Z,100.00
2022-10-19T05:06:30.377Z,100.00
2022-10-19T05:08:59.339Z,100.00
2022-10-19T05:11:27.021Z,100.00
2022-10-19T05:13:56.306Z,100.00
2022-10-19T05:16:24.415Z,100.00
2022-10-19T05:18:58.527Z,100.00
2022-10-19T05:21:29.698Z,100.00
2022-10-19T05:23:57.591Z,100.00
2022-10-19T05:26:27.775Z,100.00
2022-10-19T05:29:00.320Z,100.00
2022-10-19T05:31:30.302Z,100.00
2022-10-19T05:33:59.029Z,100.00
2022-10-19T05:36:32.254Z,100.00
2022-10-19T05:39:02.562Z,100.00
2022-10-19T05:41:30.125Z,100.00
2022-10-19T05:43:59.816Z,100.00
2022-10-19T05:46:30.043Z,100.00
2022-10-19T05:48:59.037Z,100.00
2022-10-19T05:51:28.252Z,100.00
2022-10-19T05:53:56.816Z,100.00
2022-10-19T05:56:27.738Z,100.00
2022-10-19T05:58:57.197Z,100.00
2022-10-19T06:01:25.989Z,100.00
2022-10-19T06:04:00.787Z,100.00
2022-10-19T06:06:31.529Z,100.00
2022-10-19T06:09:00.424Z,100.00
2022-10-19T06:11:36.413Z,100.00
2022-10-19T06:14:07.416Z,100.00
2022-10-19T06:16:35.677Z,100.00
2022-10-19T06:19:05.210Z,100.00
2022-10-19T06:21:34.069Z,100.00
2022-10-19T06:24:05.618Z,100.00
2022-10-19T06:26:35.877Z,100.00
2022-10-19T06:29:04.461Z,100.00
2022-10-19T06:31:34.686Z,100.00
2022-10-19T06:34:02.878Z,100.00
2022-10-19T06:36:32.531Z,100.00
2022-10-19T06:39:01.515Z,100.00
2022-10-19T06:41:31.037Z,100.00
2022-10-19T06:44:01.524Z,100.00
2022-10-19T06:46:29.137Z,100.00
2022-10-19T06:49:01.717Z,100.00
2022-10-19T06:51:31.908Z,100.00
2022-10-19T06:53:59.701Z,100.00
2022-10-19T06:56:27.617Z,100.00
2022-10-19T06:58:56.583Z,100.00
2022-10-19T07:01:25.033Z,100.00
2022-10-19T07:03:53.021Z,100.00
2022-10-19T07:06:21.341Z,100.00
2022-10-19T07:08:49.658Z,100.00
2022-10-19T07:11:19.718Z,100.00
2022-10-19T07:13:47.572Z,100.00
2022-10-19T07:16:20.564Z,100.00
2022-10-19T07:18:51.446Z,100.00
2022-10-19T07:21:21.474Z,100.00
2022-10-19T07:23:49.484Z,100.00
2022-10-19T07:26:23.236Z,100.00
2022-10-19T07:28:51.461Z,100.00
2022-10-19T07:31:21.083Z,100.00
2022-10-19T07:34:07.553Z,100.00
2022-10-19T07:36:36.803Z,100.00
2022-10-19T07:39:06.452Z,100.00
2022-10-19T07:41:37.260Z,100.00
2022-10-19T07:44:06.595Z,100.00
2022-10-19T07:46:37.127Z,100.00
2022-10-19T07:49:09.676Z,100.00
2022-10-19T07:51:38.482Z,100.00
2022-10-19T07:54:06.373Z,100.00
2022-10-19T07:56:34.566Z,100.00
2022-10-19T07:59:02.752Z,100.00
2022-10-19T08:01:33.321Z,100.00
2022-10-19T08:06:49.499Z,100.00
2022-10-19T08:09:40.145Z,100.00
2022-10-19T08:12:05.973Z,100.00
2022-10-19T08:14:33.876Z,100.00
2022-10-19T08:17:01.784Z,100.00
2022-10-19T08:19:29.591Z,100.00
2022-10-19T08:21:57.122Z,100.00
2022-10-19T08:24:24.656Z,100.00
2022-10-19T08:26:52.199Z,100.00
2022-10-19T08:29:21.022Z,100.00
2022-10-19T08:31:49.535Z,100.00
2022-10-19T08:34:19.685Z,100.00
2022-10-19T08:36:48.410Z,100.00
2022-10-19T08:39:17.711Z,100.00
2022-10-19T08:42:05.808Z,100.00
2022-10-19T08:44:57.749Z,100.00
2022-10-19T08:47:41.237Z,99.41
2022-10-19T08:50:20.182Z,99.62
2022-10-19T08:52:57.703Z,99.90
2022-10-19T08:55:36.867Z,99.95
2022-10-19T08:58:23.992Z,99.36
2022-10-19T09:01:10.685Z,98.95
2022-10-19T09:03:54.898Z,98.33
2022-10-19T09:06:44.680Z,98.97
2022-10-19T09:09:13.983Z,98.21
2022-10-19T09:11:48.721Z,96.86
2022-10-19T09:14:22.789Z,96.76
2022-10-19T09:16:51.538Z,96.44
2022-10-19T09:19:26.265Z,95.87
2022-10-19T09:23:18.531Z,95.74
2022-10-19T09:25:48.268Z,96.28
2022-10-19T09:28:39.782Z,95.64
2022-10-19T09:31:16.630Z,92.33
2022-10-19T09:33:52.363Z,92.99
2022-10-19T09:36:22.853Z,91.70
2022-10-19T09:38:55.323Z,93.13
2022-10-19T09:41:24.390Z,92.64
2022-10-19T09:43:54.571Z,91.56
2022-10-19T09:49:12.847Z,92.27
2022-10-19T09:51:51.757Z,91.37
2022-10-19T09:54:26.258Z,89.58
2022-10-19T09:56:57.071Z,89.72
2022-10-19T09:59:30.133Z,88.31
2022-10-19T10:02:30.784Z,90.51
2022-10-19T10:05:14.938Z,90.78
2022-10-19T10:07:42.536Z,89.50
2022-10-19T10:10:37.307Z,89.12
2022-10-19T10:13:07.848Z,87.83
2022-10-19T10:15:43.134Z,87.03
2022-10-19T10:18:15.919Z,86.29
2022-10-19T10:21:02.582Z,85.53
2022-10-19T10:23:36.043Z,83.53
2022-10-19T10:26:12.038Z,80.92
2022-10-19T10:28:47.030Z,84.20
2022-10-19T10:31:16.776Z,83.81
2022-10-19T10:36:24.536Z,83.04
2022-10-19T10:38:58.887Z,82.02
2022-10-19T10:41:29.569Z,83.34
2022-10-19T10:44:03.889Z,83.21
2022-10-19T10:46:36.335Z,81.16
2022-10-19T10:49:06.695Z,82.22
2022-10-19T10:51:37.197Z,80.98
2022-10-19T10:54:23.553Z,79.08
2022-10-19T11:00:12.219Z,79.79
2022-10-19T11:03:04.602Z,77.82
2022-10-19T11:05:41.798Z,78.74
2022-10-19T11:08:12.358Z,80.48
2022-10-19T11:10:59.427Z,80.83
2022-10-19T11:13:48.701Z,80.97
2022-10-19T11:16:19.578Z,81.69
2022-10-19T11:22:14.802Z,77.99
2022-10-19T11:24:59.670Z,80.83
2022-10-19T11:27:50.732Z,77.81
2022-10-19T11:30:23.104Z,81.51
2022-10-19T11:33:09.704Z,80.78
2022-10-19T11:35:53.221Z,80.98
2022-10-19T11:38:36.846Z,81.35
2022-10-19T11:41:22.586Z,81.79
2022-10-19T11:44:02.755Z,81.94
2022-10-19T11:46:36.447Z,82.58
2022-10-19T11:49:20.187Z,82.61
2022-10-19T11:52:09.844Z,81.87
2022-10-19T11:55:00.737Z,81.10
2022-10-19T11:57:33.980Z,80.29
2022-10-19T12:00:39.278Z,81.37
2022-10-19T12:03:22.893Z,80.89
2022-10-19T12:06:09.248Z,81.22
2022-10-19T12:08:40.626Z,80.12
2022-10-19T12:11:28.717Z,79.75
2022-10-19T12:14:03.509Z,81.48
2022-10-19T12:16:37.816Z,80.56
2022-10-19T12:19:12.959Z,79.92
2022-10-19T12:21:43.187Z,80.70
2022-10-19T12:24:15.671Z,79.94
2022-10-19T12:26:45.500Z,79.37
2022-10-19T12:29:19.850Z,79.52
2022-10-19T12:31:48.953Z,80.25
2022-10-19T12:34:38.725Z,79.85
2022-10-19T12:37:27.132Z,78.11
2022-10-19T12:40:23.331Z,78.41
2022-10-19T12:43:03.220Z,79.45
2022-10-19T12:45:39.401Z,79.48
2022-10-19T12:48:12.912Z,80.51
2022-10-19T12:50:59.663Z,79.65
2022-10-19T12:53:32.675Z,79.44
2022-10-19T12:56:05.551Z,78.65
2022-10-19T12:58:49.292Z,77.43
2022-10-19T13:01:32.825Z,75.36
2022-10-19T13:04:22.493Z,73.62
2022-10-19T13:07:00.122Z,75.10
2022-10-19T13:09:35.005Z,74.38
2022-10-19T13:12:21.910Z,73.65
2022-10-19T13:14:51.023Z,72.43
2022-10-19T13:17:34.299Z,73.30
2022-10-19T13:20:18.242Z,72.97
2022-10-19T13:23:13.018Z,71.17
2022-10-19T13:25:41.469Z,67.29
2022-10-19T13:28:15.231Z,64.86
2022-10-19T13:30:58.368Z,65.98
2022-10-19T13:33:34.837Z,62.68
2022-10-19T13:36:05.180Z,62.19
2022-10-19T13:41:07.046Z,65.45
2022-10-19T13:44:07.450Z,65.27
2022-10-19T13:46:47.718Z,62.98
2022-10-19T13:49:34.293Z,66.46
2022-10-19T13:52:23.684Z,63.69
2022-10-19T13:55:13.250Z,60.27
2022-10-19T13:58:02.990Z,60.34
2022-10-19T14:00:51.973Z,59.54
2022-10-19T14:03:36.758Z,60.95
2022-10-19T14:06:10.093Z,62.64
2022-10-19T14:09:06.097Z,64.01
2022-10-19T14:11:41.059Z,66.05
2022-10-19T14:14:11.556Z,65.61
2022-10-19T14:16:56.087Z,66.80
2022-10-19T14:19:42.347Z,66.66
2022-10-19T14:22:26.087Z,67.18
2022-10-19T14:25:01.257Z,67.34
2022-10-19T14:27:30.429Z,67.83
2022-10-19T14:29:58.260Z,67.52
2022-10-19T14:32:28.631Z,66.20
2022-10-19T14:37:33.169Z,65.89
2022-10-19T14:40:24.807Z,66.64
2022-10-19T14:42:57.758Z,67.50
2022-10-19T14:45:28.630Z,67.86
2022-10-19T14:48:03.612Z,68.17
2022-10-19T14:50:42.632Z,68.57
2022-10-19T14:53:26.897Z,68.86
2022-10-19T14:55:58.348Z,69.10
2022-10-19T14:58:28.667Z,70.04
2022-10-19T15:00:56.528Z,70.58
2022-10-19T15:03:28.381Z,70.55
2022-10-19T15:06:01.562Z,70.77
2022-10-19T15:08:42.439Z,70.86
2022-10-19T15:11:31.113Z,71.02
2022-10-19T15:14:08.882Z,71.48
2022-10-19T15:16:39.126Z,71.79
2022-10-19T15:19:16.413Z,72.04
2022-10-19T15:21:45.203Z,72.31
2022-10-19T15:24:25.990Z,72.53
2022-10-19T15:27:06.524Z,72.62
2022-10-19T15:29:37.541Z,73.05
2022-10-19T15:32:25.349Z,73.23
2022-10-19T15:34:52.944Z,72.79
2022-10-19T15:37:23.455Z,72.90
2022-10-19T15:39:52.645Z,72.79
2022-10-19T15:42:40.872Z,72.79
2022-10-19T15:45:31.337Z,72.91
2022-10-19T15:48:14.960Z,73.03
2022-10-19T15:50:47.729Z,73.24
2022-10-19T15:53:20.482Z,73.18
2022-10-19T15:55:49.463Z,73.59
2022-10-19T15:58:17.973Z,73.66
2022-10-19T16:00:45.520Z,73.78
2022-10-19T16:03:13.068Z,74.09
2022-10-19T16:05:40.610Z,74.16
2022-10-19T16:08:11.646Z,74.24
2022-10-19T16:10:40.083Z,74.39
2022-10-19T16:13:07.584Z,74.38
2022-10-19T16:15:35.106Z,74.57
2022-10-19T16:18:02.629Z,74.94
2022-10-19T16:20:30.809Z,74.97
2022-10-19T16:22:58.367Z,75.07
2022-10-19T16:25:26.037Z,75.22
2022-10-19T16:27:53.966Z,75.02
2022-10-19T16:30:21.481Z,75.89
2022-10-19T16:32:49.779Z,75.47
2022-10-19T16:35:17.316Z,75.54
2022-10-19T16:37:45.358Z,75.78
2022-10-19T16:40:12.924Z,76.03
2022-10-19T16:42:40.460Z,76.69
2022-10-19T16:45:09.141Z,76.26
2022-10-19T16:47:36.666Z,76.51
2022-10-19T16:50:05.808Z,76.19
2022-10-19T16:52:33.837Z,76.63
2022-10-19T16:55:02.282Z,76.97
2022-10-19T16:57:29.901Z,76.88
2022-10-19T16:59:57.420Z,77.32
2022-10-19T17:02:31.696Z,77.27
2022-10-19T17:04:59.325Z,77.28
2022-10-19T17:07:26.867Z,77.07
2022-10-19T17:09:54.985Z,77.43
2022-10-19T17:12:22.734Z,77.84
2022-10-19T17:14:51.167Z,77.95
2022-10-19T17:17:18.747Z,77.92
2022-10-19T17:19:46.695Z,78.07
2022-10-19T17:22:14.436Z,77.91
2022-10-19T17:24:41.987Z,78.21
2022-10-19T17:27:09.689Z,78.19
2022-10-19T17:29:37.457Z,78.10
2022-10-19T17:32:05.209Z,77.97
2022-10-19T17:34:32.861Z,78.19
2022-10-19T17:37:00.377Z,78.22
2022-10-19T17:39:29.906Z,78.09
2022-10-19T17:42:01.888Z,78.89
2022-10-19T17:44:31.372Z,78.77
2022-10-19T17:47:00.130Z,78.41
2022-10-19T17:49:29.628Z,78.46
2022-10-19T17:51:57.346Z,78.26
2022-10-19T17:54:24.929Z,78.29
2022-10-19T17:56:52.574Z,78.22
2022-10-19T17:59:30.147Z,78.58
2022-10-19T18:01:58.289Z,78.52
2022-10-19T18:04:25.897Z,78.51
2022-10-19T18:06:53.704Z,78.86
2022-10-19T18:09:21.209Z,79.46
2022-10-19T18:11:48.741Z,79.36
2022-10-19T18:14:16.582Z,79.81
2022-10-19T18:16:46.299Z,79.82
2022-10-19T18:19:15.990Z,79.82
2022-10-19T18:21:45.579Z,80.01
2022-10-19T18:24:21.386Z,80.36
2022-10-19T18:26:50.609Z,80.94
2022-10-19T18:29:22.231Z,80.36
2022-10-19T18:31:53.738Z,80.97
2022-10-19T18:34:24.450Z,81.39
2022-10-19T18:36:52.518Z,81.44
2022-10-19T18:39:20.404Z,81.05
2022-10-19T18:41:52.217Z,80.83
2022-10-19T18:44:25.223Z,81.10
2022-10-19T18:46:55.873Z,80.76
2022-10-19T18:49:24.110Z,80.63
2022-10-19T18:51:55.160Z,80.49
2022-10-19T18:54:26.279Z,80.48
2022-10-19T18:56:55.041Z,80.58
2022-10-19T18:59:23.376Z,80.69
2022-10-19T19:01:51.614Z,80.47
2022-10-19T19:04:19.348Z,79.95
2022-10-19T19:06:46.933Z,80.16
2022-10-19T19:09:14.514Z,80.19
2022-10-19T19:11:42.191Z,80.03
2022-10-19T19:14:15.846Z,80.15
2022-10-19T19:16:45.069Z,80.42
2022-10-19T19:19:14.682Z,80.76
2022-10-19T19:21:44.312Z,80.76
2022-10-19T19:24:15.838Z,80.97
2022-10-19T19:26:48.178Z,81.13
2022-10-19T19:29:16.679Z,81.55
2022-10-19T19:31:44.437Z,81.50
2022-10-19T19:34:12.028Z,81.42
2022-10-19T19:36:47.875Z,81.35
2022-10-19T19:39:19.831Z,81.42
2022-10-19T19:41:48.833Z,81.67
2022-10-19T19:44:17.636Z,81.84
2022-10-19T19:46:45.281Z,81.93
2022-10-19T19:49:13.694Z,82.07
2022-10-19T19:51:41.274Z,82.25
2022-10-19T19:54:08.906Z,82.97
2022-10-19T19:56:37.290Z,82.50
2022-10-19T19:59:05.255Z,82.20
2022-10-19T20:01:33.217Z,82.18
2022-10-19T20:06:31.088Z,82.31
2022-10-19T20:08:58.680Z,82.03
2022-10-19T20:11:28.770Z,82.13
2022-10-19T20:13:56.455Z,82.15
2022-10-19T20:16:29.200Z,82.32
2022-10-19T20:19:05.182Z,82.26
2022-10-19T20:21:33.557Z,82.13
2022-10-19T20:24:01.680Z,82.13
2022-10-19T20:26:29.834Z,82.12
2022-10-19T20:28:57.860Z,82.29
2022-10-19T20:31:25.789Z,82.64
2022-10-19T20:33:53.360Z,82.45
2022-10-19T20:36:25.514Z,82.55
2022-10-19T20:38:55.395Z,82.34
2022-10-19T20:41:24.824Z,82.36
2022-10-19T20:43:53.758Z,82.40
2022-10-19T20:46:24.647Z,82.05
2022-10-19T20:48:52.875Z,81.81
2022-10-19T20:51:32.527Z,81.73
2022-10-19T20:54:02.907Z,81.92
2022-10-19T20:56:33.641Z,82.24
2022-10-19T20:59:11.218Z,82.29
2022-10-19T21:01:40.445Z,82.20
2022-10-19T21:04:10.861Z,82.05
2022-10-19T21:06:48.116Z,81.93
2022-10-19T21:09:18.367Z,82.04
2022-10-19T21:11:47.571Z,82.54
2022-10-19T21:14:18.939Z,82.76
2022-10-19T21:16:48.017Z,83.05
2022-10-19T21:19:21.385Z,82.82
2022-10-19T21:21:52.488Z,82.99
2022-10-19T21:24:22.757Z,82.75
2022-10-19T21:29:20.272Z,82.32
2022-10-19T21:31:49.959Z,82.22
2022-10-19T21:34:23.428Z,82.16
2022-10-19T21:36:51.446Z,82.17
2022-10-19T21:39:19.527Z,82.46
2022-10-19T21:41:47.490Z,82.36
2022-10-19T21:44:16.844Z,82.63
2022-10-19T21:46:47.081Z,82.52
2022-10-19T21:49:15.329Z,82.68
2022-10-19T21:52:03.244Z,82.32
2022-10-19T21:54:30.758Z,82.74
2022-10-19T21:57:01.220Z,82.40
2022-10-19T21:59:29.023Z,82.25
2022-10-19T22:01:57.100Z,82.40
2022-10-19T22:04:24.714Z,82.47
2022-10-19T22:06:52.677Z,82.49
2022-10-19T22:09:21.927Z,82.58
2022-10-19T22:11:49.484Z,82.93
2022-10-19T22:14:17.634Z,83.12
2022-10-19T22:16:45.235Z,83.14
2022-10-19T22:19:13.141Z,83.05
2022-10-19T22:21:41.006Z,83.40
2022-10-19T22:24:13.090Z,83.44
2022-10-19T22:26:44.134Z,83.57
2022-10-19T22:29:11.687Z,83.36
2022-10-19T22:31:39.597Z,83.50
2022-10-19T22:34:10.568Z,84.24
2022-10-19T22:36:38.577Z,85.40
2022-10-19T22:39:06.910Z,86.28
2022-10-19T22:41:34.520Z,85.83
2022-10-19T22:44:02.306Z,86.22
2022-10-19T22:46:29.998Z,85.73
2022-10-19T22:48:58.272Z,85.69
2022-10-19T22:51:26.198Z,85.53
2022-10-19T22:53:53.807Z,85.41
2022-10-19T22:56:21.513Z,85.21
2022-10-19T22:58:49.185Z,85.20
2022-10-19T23:01:17.164Z,85.12
2022-10-19T23:03:45.242Z,85.52
2022-10-19T23:06:15.037Z,85.18
2022-10-19T23:08:44.449Z,85.14
2022-10-19T23:11:12.742Z,84.87
2022-10-19T23:13:41.198Z,84.74
2022-10-19T23:16:09.429Z,84.56
2022-10-19T23:18:39.574Z,84.44
2022-10-19T23:21:10.733Z,84.44
2022-10-19T23:23:39.333Z,84.40
2022-10-19T23:26:10.630Z,84.77
2022-10-19T23:28:40.636Z,85.02
2022-10-19T23:31:20.309Z,85.26
2022-10-19T23:33:47.992Z,85.47
2022-10-19T23:36:16.994Z,85.51
2022-10-19T23:38:46.291Z,85.67
2022-10-19T23:41:14.969Z,85.53
2022-10-19T23:43:42.855Z,85.16
2022-10-19T23:46:11.123Z,85.33
2022-10-19T23:48:39.724Z,85.21
2022-10-19T23:51:13.243Z,85.04
2022-10-19T23:53:43.627Z,85.15
2022-10-19T23:56:28.106Z,85.24
2022-10-19T23:58:56.675Z,85.27
